createdAt,value
2022-10-17T00:01:45.923Z,4.75
2022-10-17T00:04:49.017Z,5.05
2022-10-17T00:07:52.626Z,4.90
2022-10-17T00:11:01.223Z,4.75
2022-10-17T00:14:04.106Z,5.20
2022-10-17T00:17:07.109Z,4.90
2022-10-17T00:20:10.916Z,5.03
2022-10-17T00:23:13.949Z,6.32
2022-10-17T00:26:18.165Z,7.47
2022-10-17T00:29:21.202Z,6.00
2022-10-17T00:32:23.934Z,4.70
2022-10-17T00:35:26.971Z,4.70
2022-10-17T00:38:29.787Z,5.07
2022-10-17T00:41:33.966Z,5.85
2022-10-17T00:44:40.850Z,4.47
2022-10-17T00:47:46.568Z,5.30
2022-10-17T00:50:50.518Z,5.40
2022-10-17T00:53:53.700Z,5.10
2022-10-17T00:56:56.492Z,5.20
2022-10-17T01:00:07.545Z,5.07
2022-10-17T01:03:10.855Z,5.00
2022-10-17T01:06:13.874Z,4.93
2022-10-17T01:09:16.655Z,5.00
2022-10-17T01:12:35.009Z,5.35
2022-10-17T01:16:04.121Z,5.25
2022-10-17T01:19:16.423Z,4.68
2022-10-17T01:22:21.618Z,4.90
2022-10-17T01:25:46.996Z,5.30
2022-10-17T01:28:58.758Z,5.12
2022-10-17T01:32:14.423Z,5.07
2022-10-17T01:38:34.989Z,5.12
2022-10-17T01:41:56.491Z,4.82
2022-10-17T01:45:01.799Z,5.05
2022-10-17T01:51:32.247Z,5.25
2022-10-17T01:54:43.099Z,4.68
2022-10-17T01:57:55.535Z,5.57
2022-10-17T02:01:02.247Z,5.68
2022-10-17T02:04:07.537Z,5.55
2022-10-17T02:07:12.323Z,5.70
2022-10-17T02:13:53.617Z,5.22
2022-10-17T02:17:04.710Z,6.75
2022-10-17T02:20:19.571Z,5.90
2022-10-17T02:23:47.457Z,6.12
2022-10-17T02:26:59.815Z,6.12
2022-10-17T02:30:02.988Z,5.75
2022-10-17T02:33:10.477Z,6.25
2022-10-17T02:36:21.969Z,6.50
2022-10-17T02:39:25.721Z,6.12
2022-10-17T02:42:30.246Z,6.03
2022-10-17T02:45:36.189Z,5.57
2022-10-17T02:48:44.596Z,6.32
2022-10-17T02:51:52.993Z,5.43
2022-10-17T02:55:01.569Z,6.03
2022-10-17T02:58:13.873Z,5.95
2022-10-17T03:01:16.967Z,6.03
2022-10-17T03:04:20.500Z,5.68
2022-10-17T03:07:23.834Z,6.45
2022-10-17T03:10:26.974Z,6.10
2022-10-17T03:13:30.696Z,6.68
2022-10-17T03:16:33.852Z,6.15
2022-10-17T03:19:37.877Z,5.95
2022-10-17T03:22:41.206Z,6.17
2022-10-17T03:28:52.083Z,5.68
2022-10-17T03:31:57.450Z,6.22
2022-10-17T03:35:01.937Z,7.15
2022-10-17T03:38:04.905Z,6.30
2022-10-17T03:41:08.293Z,5.50
2022-10-17T03:44:11.505Z,5.62
2022-10-17T03:47:14.580Z,5.70
2022-10-17T03:50:17.618Z,6.05
2022-10-17T03:53:20.822Z,5.78
2022-10-17T03:56:25.030Z,5.80
2022-10-17T03:59:28.581Z,6.47
2022-10-17T04:02:31.568Z,5.62
2022-10-17T04:05:34.728Z,5.87
2022-10-17T04:08:37.533Z,6.05
2022-10-17T04:11:42.283Z,5.22
2022-10-17T04:14:45.251Z,5.18
2022-10-17T04:17:50.396Z,5.10
2022-10-17T04:20:53.351Z,5.75
2022-10-17T04:23:58.470Z,5.75
2022-10-17T04:27:02.588Z,5.28
2022-10-17T04:30:06.335Z,6.00
2022-10-17T04:33:09.327Z,6.43
2022-10-17T04:36:14.537Z,5.45
2022-10-17T04:39:17.587Z,5.22
2022-10-17T04:42:21.103Z,5.47
2022-10-17T04:45:24.477Z,5.85
2022-10-17T04:48:28.920Z,5.43
2022-10-17T04:51:32.211Z,5.37
2022-10-17T04:54:37.348Z,5.57
2022-10-17T04:57:40.649Z,5.82
2022-10-17T05:00:44.836Z,5.40
2022-10-17T05:03:48.300Z,5.78
2022-10-17T05:06:53.128Z,5.60
2022-10-17T05:09:58.950Z,5.75
2022-10-17T05:13:02.028Z,6.20
2022-10-17T05:16:05.827Z,5.85
2022-10-17T05:19:08.842Z,5.80
2022-10-17T05:22:11.906Z,5.55
2022-10-17T05:25:15.219Z,6.25
2022-10-17T05:28:17.907Z,6.78
2022-10-17T05:31:22.264Z,6.10
2022-10-17T05:34:25.275Z,6.85
2022-10-17T05:37:30.118Z,5.93
2022-10-17T05:40:33.834Z,6.12
2022-10-17T05:43:36.885Z,6.40
2022-10-17T05:46:40.285Z,6.07
2022-10-17T05:49:48.585Z,6.35
2022-10-17T05:52:55.967Z,5.70
2022-10-17T05:56:03.115Z,6.87
2022-10-17T05:59:06.161Z,5.97
2022-10-17T06:02:13.844Z,6.72
2022-10-17T06:05:17.511Z,6.05
2022-10-17T06:08:20.455Z,6.20
2022-10-17T06:11:23.550Z,6.87
2022-10-17T06:14:26.425Z,7.97
2022-10-17T06:17:31.079Z,6.53
2022-10-17T06:20:33.870Z,6.32
2022-10-17T06:23:38.781Z,7.40
2022-10-17T06:26:41.925Z,7.30
2022-10-17T06:29:46.623Z,7.00
2022-10-17T06:32:49.465Z,7.45
2022-10-17T06:35:56.851Z,7.30
2022-10-17T06:38:59.695Z,7.22
2022-10-17T06:42:04.299Z,8.00
2022-10-17T06:45:15.146Z,8.15
2022-10-17T06:48:18.249Z,7.78
2022-10-17T06:51:22.935Z,7.82
2022-10-17T06:54:28.103Z,9.40
2022-10-17T06:57:31.905Z,8.77
2022-10-17T07:00:35.494Z,8.48
2022-10-17T07:03:39.246Z,8.77
2022-10-17T07:06:42.329Z,8.52
2022-10-17T07:09:46.709Z,9.10
2022-10-17T07:12:51.233Z,8.63
2022-10-17T07:19:01.605Z,9.45
2022-10-17T07:22:08.165Z,9.00
2022-10-17T07:25:12.011Z,9.20
2022-10-17T07:28:16.385Z,9.17
2022-10-17T07:31:20.661Z,8.48
2022-10-17T07:34:27.567Z,8.40
2022-10-17T07:37:31.170Z,8.20
2022-10-17T07:40:34.781Z,7.87
2022-10-17T07:43:38.934Z,8.00
2022-10-17T07:46:43.099Z,8.05
2022-10-17T07:49:46.476Z,7.62
2022-10-17T07:52:49.310Z,8.43
2022-10-17T07:55:53.491Z,7.82
2022-10-17T08:02:00.910Z,7.18
2022-10-17T08:05:04.443Z,7.68
2022-10-17T08:08:07.216Z,7.50
2022-10-17T08:11:13.157Z,7.35
2022-10-17T08:14:16.974Z,7.50
2022-10-17T08:17:19.985Z,6.70
2022-10-17T08:20:22.803Z,6.95
2022-10-17T08:23:26.277Z,7.22
2022-10-17T08:26:29.646Z,7.00
2022-10-17T08:29:33.055Z,6.90
2022-10-17T08:32:35.817Z,6.28
2022-10-17T08:35:39.111Z,6.80
2022-10-17T08:38:43.857Z,6.60
2022-10-17T08:42:05.696Z,7.28
2022-10-17T08:45:23.545Z,6.97
2022-10-17T08:48:29.265Z,7.47
2022-10-17T08:51:35.153Z,6.87
2022-10-17T08:54:46.392Z,6.62
2022-10-17T08:57:49.459Z,6.30
2022-10-17T09:01:07.960Z,6.80
2022-10-17T09:04:54.697Z,6.80
2022-10-17T09:08:00.754Z,6.65
2022-10-17T09:11:13.980Z,4.50
2022-10-17T09:14:37.146Z,4.05
2022-10-17T09:18:00.315Z,3.85
2022-10-17T09:21:25.534Z,3.90
2022-10-17T09:24:58.919Z,4.32
2022-10-17T09:28:11.460Z,3.72
2022-10-17T09:31:25.028Z,4.12
2022-10-17T09:34:29.856Z,4.10
2022-10-17T09:37:32.985Z,3.92
2022-10-17T09:40:40.510Z,4.35
2022-10-17T09:43:43.286Z,3.80
2022-10-17T09:47:06.844Z,3.90
2022-10-17T09:50:22.104Z,4.15
2022-10-17T09:53:34.088Z,4.03
2022-10-17T09:57:04.401Z,4.90
2022-10-17T10:03:22.465Z,3.95
2022-10-17T10:06:25.166Z,4.60
2022-10-17T10:09:30.967Z,4.22
2022-10-17T10:12:39.110Z,4.22
2022-10-17T10:15:44.101Z,5.43
2022-10-17T10:22:02.411Z,3.87
2022-10-17T10:25:11.074Z,3.78
2022-10-17T10:28:16.359Z,3.97
2022-10-17T10:31:38.561Z,3.28
2022-10-17T10:34:51.081Z,3.80
2022-10-17T10:37:56.102Z,3.22
2022-10-17T10:41:07.908Z,3.72
2022-10-17T10:44:14.418Z,3.40
2022-10-17T10:47:37.665Z,4.00
2022-10-17T10:50:57.685Z,3.20
2022-10-17T10:54:22.096Z,3.35
2022-10-17T10:57:28.789Z,4.30
2022-10-17T11:00:34.383Z,4.05
2022-10-17T11:03:50.248Z,3.62
2022-10-17T11:06:58.986Z,3.80
2022-10-17T11:10:10.408Z,3.72
2022-10-17T11:13:29.720Z,3.53
2022-10-17T11:16:49.608Z,3.67
2022-10-17T11:20:03.320Z,3.70
2022-10-17T11:23:34.610Z,3.67
2022-10-17T11:26:43.274Z,3.62
2022-10-17T11:29:46.083Z,3.67
2022-10-17T11:32:53.882Z,3.95
2022-10-17T11:36:02.225Z,4.20
2022-10-17T11:39:10.546Z,3.30
2022-10-17T11:42:19.068Z,3.78
2022-10-17T11:45:22.798Z,3.90
2022-10-17T11:48:31.269Z,4.70
2022-10-17T11:52:05.933Z,3.67
2022-10-17T11:55:19.507Z,3.70
2022-10-17T11:58:31.949Z,4.12
2022-10-17T12:01:44.673Z,4.72
2022-10-17T12:04:56.999Z,4.72
2022-10-17T12:08:15.042Z,3.83
2022-10-17T12:11:42.907Z,3.87
2022-10-17T12:14:47.016Z,3.92
2022-10-17T12:18:03.978Z,3.95
2022-10-17T12:21:08.141Z,4.35
2022-10-17T12:24:45.967Z,3.80
2022-10-17T12:27:50.251Z,3.92
2022-10-17T12:31:05.808Z,3.92
2022-10-17T12:34:17.569Z,3.62
2022-10-17T12:38:01.321Z,3.62
2022-10-17T12:41:05.097Z,3.20
2022-10-17T12:44:15.144Z,3.78
2022-10-17T12:47:35.585Z,3.95
2022-10-17T12:51:30.648Z,3.28
2022-10-17T12:54:27.167Z,3.25
2022-10-17T12:57:36.416Z,3.17
2022-10-17T13:00:49.691Z,3.70
2022-10-17T13:04:05.912Z,3.67
2022-10-17T13:07:22.760Z,3.35
2022-10-17T13:10:32.814Z,3.17
2022-10-17T13:13:50.072Z,3.22
2022-10-17T13:16:55.831Z,3.37
2022-10-17T13:19:58.939Z,3.08
2022-10-17T13:23:02.147Z,3.50
2022-10-17T13:26:04.798Z,3.62
2022-10-17T13:29:13.796Z,3.42
2022-10-17T13:32:17.018Z,3.70
2022-10-17T13:35:36.554Z,3.28
2022-10-17T13:38:50.485Z,3.60
2022-10-17T13:41:54.853Z,3.22
2022-10-17T13:44:59.586Z,3.30
2022-10-17T13:48:06.142Z,3.45
2022-10-17T13:51:11.190Z,3.53
2022-10-17T13:54:20.384Z,3.55
2022-10-17T13:57:32.061Z,3.75
2022-10-17T14:00:35.791Z,3.92
2022-10-17T14:03:48.738Z,4.12
2022-10-17T14:06:53.159Z,3.35
2022-10-17T14:09:56.179Z,4.40
2022-10-17T14:12:59.489Z,4.00
2022-10-17T14:16:04.326Z,3.87
2022-10-17T14:19:34.152Z,4.43
2022-10-17T14:22:37.791Z,4.00
2022-10-17T14:25:41.160Z,3.78
2022-10-17T14:28:48.645Z,3.40
2022-10-17T14:31:58.605Z,3.80
2022-10-17T14:35:24.375Z,3.90
2022-10-17T14:38:28.454Z,4.03
2022-10-17T14:41:49.331Z,3.45
2022-10-17T14:44:53.090Z,6.57
2022-10-17T14:48:02.400Z,4.37
2022-10-17T14:51:09.015Z,3.47
2022-10-17T14:54:23.488Z,3.75
2022-10-17T15:00:33.627Z,3.70
2022-10-17T15:03:36.709Z,3.60
2022-10-17T15:06:40.735Z,3.40
2022-10-17T15:09:44.838Z,3.67
2022-10-17T15:12:56.207Z,4.15
2022-10-17T15:16:02.827Z,4.25
2022-10-17T15:19:05.872Z,3.50
2022-10-17T15:22:08.647Z,3.47
2022-10-17T15:25:11.828Z,3.63
2022-10-17T15:28:14.665Z,3.37
2022-10-17T15:31:23.148Z,4.00
2022-10-17T15:34:25.988Z,3.90
2022-10-17T15:37:33.935Z,4.07
2022-10-17T15:40:36.666Z,4.20
2022-10-17T15:43:39.708Z,4.00
2022-10-17T15:46:42.960Z,3.58
2022-10-17T15:49:46.214Z,3.55
2022-10-17T15:52:52.671Z,3.80
2022-10-17T15:55:56.999Z,3.85
2022-10-17T15:59:03.723Z,3.70
2022-10-17T16:02:13.448Z,3.70
2022-10-17T16:05:23.299Z,4.05
2022-10-17T16:08:26.739Z,3.40
2022-10-17T16:11:34.793Z,4.05
2022-10-17T16:14:37.577Z,3.87
2022-10-17T16:17:44.019Z,3.80
2022-10-17T16:20:47.585Z,3.87
2022-10-17T16:23:50.740Z,3.58
2022-10-17T16:26:54.098Z,4.10
2022-10-17T16:29:57.133Z,3.85
2022-10-17T16:33:00.349Z,4.15
2022-10-17T16:36:03.731Z,4.60
2022-10-17T16:39:07.095Z,4.05
2022-10-17T16:42:10.107Z,3.40
2022-10-17T16:45:20.196Z,3.67
2022-10-17T16:48:26.155Z,3.65
2022-10-17T16:51:33.862Z,3.33
2022-10-17T16:54:36.888Z,3.80
2022-10-17T16:57:39.742Z,4.25
2022-10-17T17:00:42.852Z,3.40
2022-10-17T17:03:47.008Z,3.40
2022-10-17T17:06:50.079Z,3.70
2022-10-17T17:09:53.774Z,4.20
2022-10-17T17:12:57.301Z,3.80
2022-10-17T17:16:07.791Z,3.72
2022-10-17T17:19:14.231Z,4.00
2022-10-17T17:22:17.642Z,3.67
2022-10-17T17:25:22.331Z,3.53
2022-10-17T17:28:26.356Z,3.35
2022-10-17T17:31:31.811Z,3.28
2022-10-17T17:34:38.587Z,3.58
2022-10-17T17:37:42.039Z,4.03
2022-10-17T17:40:50.558Z,3.78
2022-10-17T17:43:55.303Z,3.40
2022-10-17T17:46:59.363Z,3.47
2022-10-17T17:50:04.036Z,3.78
2022-10-17T17:53:14.056Z,3.12
2022-10-17T17:56:22.559Z,3.50
2022-10-17T17:59:25.632Z,3.53
2022-10-17T18:02:29.244Z,3.45
2022-10-17T18:05:32.838Z,3.50
2022-10-17T18:08:36.711Z,3.42
2022-10-17T18:11:40.238Z,3.45
2022-10-17T18:14:43.597Z,3.30
2022-10-17T18:17:47.302Z,3.40
2022-10-17T18:20:52.660Z,3.60
2022-10-17T18:23:56.798Z,3.80
2022-10-17T18:27:00.137Z,3.83
2022-10-17T18:30:04.974Z,3.80
2022-10-17T18:33:09.540Z,3.67
2022-10-17T18:36:15.191Z,3.50
2022-10-17T18:39:18.652Z,3.90
2022-10-17T18:42:22.041Z,3.67
2022-10-17T18:45:25.275Z,3.45
2022-10-17T18:48:28.832Z,3.53
2022-10-17T18:51:32.510Z,3.20
2022-10-17T18:54:36.072Z,4.97
2022-10-17T18:57:41.553Z,6.40
2022-10-17T19:00:45.727Z,3.95
2022-10-17T19:03:50.752Z,4.32
2022-10-17T19:06:54.107Z,7.87
2022-10-17T19:09:57.025Z,6.68
2022-10-17T19:13:01.947Z,5.85
2022-10-17T19:16:17.810Z,6.95
2022-10-17T19:19:23.905Z,9.32
2022-10-17T19:22:28.564Z,11.38
2022-10-17T19:25:34.262Z,10.27
2022-10-17T19:28:39.730Z,9.20
2022-10-17T19:31:43.837Z,6.93
2022-10-17T19:34:46.764Z,9.30
2022-10-17T19:37:50.063Z,7.57
2022-10-17T19:40:53.621Z,8.30
2022-10-17T19:43:57.169Z,8.10
2022-10-17T19:47:00.406Z,7.80
2022-10-17T19:50:04.771Z,7.65
2022-10-17T19:53:08.821Z,7.78
2022-10-17T19:56:14.873Z,8.50
2022-10-17T19:59:18.313Z,7.20
2022-10-17T20:02:22.052Z,7.03
2022-10-17T20:05:28.091Z,6.60
2022-10-17T20:08:31.048Z,6.25
2022-10-17T20:11:33.918Z,6.55
2022-10-17T20:14:40.880Z,6.40
2022-10-17T20:17:44.189Z,5.62
2022-10-17T20:20:47.264Z,5.80
2022-10-17T20:23:50.773Z,5.47
2022-10-17T20:26:54.597Z,4.75
2022-10-17T20:30:01.786Z,5.55
2022-10-17T20:33:04.551Z,4.53
2022-10-17T20:36:09.393Z,4.87
2022-10-17T20:39:13.643Z,4.45
2022-10-17T20:42:16.655Z,5.40
2022-10-17T20:45:32.015Z,4.57
2022-10-17T20:48:42.452Z,4.05
2022-10-17T20:51:45.699Z,3.90
2022-10-17T20:54:48.945Z,4.80
2022-10-17T20:57:54.754Z,4.03
2022-10-17T21:00:58.050Z,4.00
2022-10-17T21:04:21.260Z,4.62
2022-10-17T21:07:25.421Z,4.28
2022-10-17T21:10:35.265Z,5.12
2022-10-17T21:13:39.768Z,4.18
2022-10-17T21:16:43.097Z,4.53
2022-10-17T21:19:47.706Z,4.90
2022-10-17T21:22:50.272Z,4.00
2022-10-17T21:25:53.653Z,4.80
2022-10-17T21:28:58.044Z,5.22
2022-10-17T21:32:01.082Z,4.22
2022-10-17T21:35:03.936Z,4.90
2022-10-17T21:38:06.936Z,4.57
2022-10-17T21:41:11.112Z,4.78
2022-10-17T21:44:16.850Z,4.50
2022-10-17T21:47:21.418Z,4.28
2022-10-17T21:50:25.320Z,5.05
2022-10-17T21:53:28.386Z,4.15
2022-10-17T21:56:32.645Z,4.62
2022-10-17T21:59:35.701Z,5.07
2022-10-17T22:02:38.657Z,5.32
2022-10-17T22:05:41.658Z,4.45
2022-10-17T22:08:45.534Z,5.10
2022-10-17T22:11:51.278Z,5.03
2022-10-17T22:14:54.171Z,5.22
2022-10-17T22:17:58.409Z,4.87
2022-10-17T22:21:13.720Z,4.85
2022-10-17T22:24:18.671Z,5.18
2022-10-17T22:27:21.657Z,5.10
2022-10-17T22:30:25.325Z,5.12
2022-10-17T22:33:27.999Z,5.60
2022-10-17T22:36:32.249Z,4.97
2022-10-17T22:39:34.993Z,4.85
2022-10-17T22:42:38.050Z,4.87
2022-10-17T22:45:41.210Z,4.80
2022-10-17T22:48:44.520Z,3.90
2022-10-17T22:51:47.261Z,4.65
2022-10-17T22:54:50.322Z,4.10
2022-10-17T22:57:53.071Z,4.53
2022-10-17T23:00:56.738Z,4.10
2022-10-17T23:03:59.473Z,4.47
2022-10-17T23:07:02.523Z,4.55
2022-10-17T23:10:05.684Z,4.28
2022-10-17T23:13:09.067Z,4.37
2022-10-17T23:16:11.761Z,4.28
2022-10-17T23:19:14.789Z,3.92
2022-10-17T23:22:17.586Z,4.35
2022-10-17T23:25:20.599Z,4.32
2022-10-17T23:28:23.460Z,4.00
2022-10-17T23:31:26.667Z,5.47
2022-10-17T23:34:30.557Z,4.40
2022-10-17T23:37:34.456Z,4.40
2022-10-17T23:40:37.420Z,4.05
2022-10-17T23:43:40.767Z,4.20
2022-10-17T23:46:44.223Z,4.35
2022-10-17T23:49:47.259Z,4.30
2022-10-17T23:52:50.803Z,4.22
2022-10-17T23:55:53.914Z,4.53
2022-10-17T23:58:56.619Z,3.92
